sensor_id;sensor_type;location;lat;lon;timestamp;temperature;humidity
11239;DHT22;5677;48.488;13.436;2022-12-19T00:01:01;11.00;43.70
11239;DHT22;5677;48.488;13.436;2022-12-19T00:03:29;11.00;43.70
11239;DHT22;5677;48.488;13.436;2022-12-19T00:06:00;11.00;43.70
11239;DHT22;5677;48.488;13.436;2022-12-19T00:08:27;11.00;43.70
11239;DHT22;5677;48.488;13.436;2022-12-19T00:10:55;11.00;43.80
11239;DHT22;5677;48.488;13.436;2022-12-19T00:13:22;11.00;43.80
11239;DHT22;5677;48.488;13.436;2022-12-19T00:15:49;11.00;43.80
11239;DHT22;5677;48.488;13.436;2022-12-19T00:18:16;11.00;43.70
11239;DHT22;5677;48.488;13.436;2022-12-19T00:20:44;11.00;43.80
11239;DHT22;5677;48.488;13.436;2022-12-19T00:23:11;11.00;43.80
11239;DHT22;5677;48.488;13.436;2022-12-19T00:25:37;11.00;43.70
11239;DHT22;5677;48.488;13.436;2022-12-19T00:28:04;11.00;43.80
11239;DHT22;5677;48.488;13.436;2022-12-19T00:30:31;11.00;43.70
11239;DHT22;5677;48.488;13.436;2022-12-19T00:32:58;11.00;43.70
11239;DHT22;5677;48.488;13.436;2022-12-19T00:35:25;11.00;43.80
11239;DHT22;5677;48.488;13.436;2022-12-19T00:37:53;11.00;43.70
11239;DHT22;5677;48.488;13.436;2022-12-19T00:40:19;11.00;43.70
11239;DHT22;5677;48.488;13.436;2022-12-19T00:42:46;11.00;43.80
11239;DHT22;5677;48.488;13.436;2022-12-19T00:45:13;11.00;43.80
11239;DHT22;5677;48.488;13.436;2022-12-19T00:47:40;11.00;43.70
11239;DHT22;5677;48.488;13.436;2022-12-19T00:50:07;11.00;43.70
11239;DHT22;5677;48.488;13.436;2022-12-19T00:52:34;11.00;43.80
11239;DHT22;5677;48.488;13.436;2022-12-19T00:55:03;11.00;43.80
11239;DHT22;5677;48.488;13.436;2022-12-19T00:57:30;11.00;43.80
11239;DHT22;5677;48.488;13.436;2022-12-19T00:59:57;11.00;43.80
11239;DHT22;5677;48.488;13.436;2022-12-19T01:02:23;11.00;43.80
11239;DHT22;5677;48.488;13.436;2022-12-19T01:04:50;11.00;43.80
11239;DHT22;5677;48.488;13.436;2022-12-19T01:07:17;11.00;43.80
11239;DHT22;5677;48.488;13.436;2022-12-19T01:09:43;11.00;43.80
11239;DHT22;5677;48.488;13.436;2022-12-19T01:12:12;11.00;43.80
11239;DHT22;5677;48.488;13.436;2022-12-19T01:14:56;11.00;43.80
11239;DHT22;5677;48.488;13.436;2022-12-19T01:17:23;11.00;43.70
11239;DHT22;5677;48.488;13.436;2022-12-19T01:19:49;11.00;43.70
11239;DHT22;5677;48.488;13.436;2022-12-19T01:22:16;11.00;43.70
11239;DHT22;5677;48.488;13.436;2022-12-19T01:24:43;11.00;43.70
11239;DHT22;5677;48.488;13.436;2022-12-19T01:27:11;11.00;43.70
11239;DHT22;5677;48.488;13.436;2022-12-19T01:29:38;11.00;43.70
11239;DHT22;5677;48.488;13.436;2022-12-19T01:32:05;11.00;43.80
11239;DHT22;5677;48.488;13.436;2022-12-19T01:34:32;11.00;43.80
11239;DHT22;5677;48.488;13.436;2022-12-19T01:36:58;11.00;43.80
11239;DHT22;5677;48.488;13.436;2022-12-19T01:39:25;11.00;43.70
11239;DHT22;5677;48.488;13.436;2022-12-19T01:41:52;11.00;43.80
11239;DHT22;5677;48.488;13.436;2022-12-19T01:44:23;11.00;43.70
11239;DHT22;5677;48.488;13.436;2022-12-19T01:46:52;11.00;43.70
11239;DHT22;5677;48.488;13.436;2022-12-19T01:49:29;11.00;43.80
11239;DHT22;5677;48.488;13.436;2022-12-19T01:51:59;11.00;43.80
11239;DHT22;5677;48.488;13.436;2022-12-19T01:54:30;11.00;43.80
11239;DHT22;5677;48.488;13.436;2022-12-19T01:56:59;11.00;43.80
11239;DHT22;5677;48.488;13.436;2022-12-19T01:59:31;11.00;43.80
11239;DHT22;5677;48.488;13.436;2022-12-19T02:02:06;11.00;43.90
11239;DHT22;5677;48.488;13.436;2022-12-19T02:04:34;11.00;44.10
11239;DHT22;5677;48.488;13.436;2022-12-19T02:07:03;11.00;44.00
11239;DHT22;5677;48.488;13.436;2022-12-19T02:09:30;11.00;44.10
11239;DHT22;5677;48.488;13.436;2022-12-19T02:11:58;11.00;44.00
11239;DHT22;5677;48.488;13.436;2022-12-19T02:14:25;11.10;44.10
11239;DHT22;5677;48.488;13.436;2022-12-19T02:16:58;11.00;44.70
11239;DHT22;5677;48.488;13.436;2022-12-19T02:22:39;11.00;44.70
11239;DHT22;5677;48.488;13.436;2022-12-19T02:25:31;11.00;44.00
11239;DHT22;5677;48.488;13.436;2022-12-19T02:28:32;11.00;44.00
11239;DHT22;5677;48.488;13.436;2022-12-19T02:31:06;11.00;44.00
11239;DHT22;5677;48.488;13.436;2022-12-19T02:33:40;11.00;44.00
11239;DHT22;5677;48.488;13.436;2022-12-19T02:36:14;11.00;43.90
11239;DHT22;5677;48.488;13.436;2022-12-19T02:38:48;11.00;44.00
11239;DHT22;5677;48.488;13.436;2022-12-19T02:41:21;11.00;44.00
11239;DHT22;5677;48.488;13.436;2022-12-19T02:43:51;11.00;43.90
11239;DHT22;5677;48.488;13.436;2022-12-19T02:46:22;11.00;44.00
11239;DHT22;5677;48.488;13.436;2022-12-19T02:48:50;11.00;43.90
11239;DHT22;5677;48.488;13.436;2022-12-19T02:51:17;11.00;44.00
11239;DHT22;5677;48.488;13.436;2022-12-19T02:53:44;11.00;43.90
11239;DHT22;5677;48.488;13.436;2022-12-19T02:56:23;11.00;43.90
11239;DHT22;5677;48.488;13.436;2022-12-19T02:59:05;11.00;43.90
11239;DHT22;5677;48.488;13.436;2022-12-19T03:01:42;11.00;44.00
11239;DHT22;5677;48.488;13.436;2022-12-19T03:04:16;11.00;43.90
11239;DHT22;5677;48.488;13.436;2022-12-19T03:06:48;11.00;43.90
11239;DHT22;5677;48.488;13.436;2022-12-19T03:09:25;11.00;44.00
11239;DHT22;5677;48.488;13.436;2022-12-19T03:11:58;11.00;44.00
11239;DHT22;5677;48.488;13.436;2022-12-19T03:14:28;11.00;44.00
11239;DHT22;5677;48.488;13.436;2022-12-19T03:17:02;11.00;44.00
11239;DHT22;5677;48.488;13.436;2022-12-19T03:19:29;11.00;44.00
11239;DHT22;5677;48.488;13.436;2022-12-19T03:21:57;11.00;44.00
11239;DHT22;5677;48.488;13.436;2022-12-19T03:24:23;11.00;43.90
11239;DHT22;5677;48.488;13.436;2022-12-19T03:26:55;11.00;44.00
11239;DHT22;5677;48.488;13.436;2022-12-19T03:29:29;11.00;44.00
11239;DHT22;5677;48.488;13.436;2022-12-19T03:32:00;11.00;44.00
11239;DHT22;5677;48.488;13.436;2022-12-19T03:34:30;11.00;43.90
11239;DHT22;5677;48.488;13.436;2022-12-19T03:37:01;11.00;44.00
11239;DHT22;5677;48.488;13.436;2022-12-19T03:39:29;11.00;44.00
11239;DHT22;5677;48.488;13.436;2022-12-19T03:41:58;11.00;44.00
11239;DHT22;5677;48.488;13.436;2022-12-19T03:44:42;11.00;43.90
11239;DHT22;5677;48.488;13.436;2022-12-19T03:47:16;11.00;43.90
11239;DHT22;5677;48.488;13.436;2022-12-19T03:49:44;11.00;44.00
11239;DHT22;5677;48.488;13.436;2022-12-19T03:52:19;11.00;43.90
11239;DHT22;5677;48.488;13.436;2022-12-19T03:54:54;11.00;44.00
11239;DHT22;5677;48.488;13.436;2022-12-19T03:57:29;11.00;44.00
11239;DHT22;5677;48.488;13.436;2022-12-19T04:00:03;11.00;44.00
11239;DHT22;5677;48.488;13.436;2022-12-19T04:02:34;11.10;44.10
11239;DHT22;5677;48.488;13.436;2022-12-19T04:05:06;11.10;44.00
11239;DHT22;5677;48.488;13.436;2022-12-19T04:07:34;11.00;44.00
11239;DHT22;5677;48.488;13.436;2022-12-19T04:10:05;11.00;44.00
11239;DHT22;5677;48.488;13.436;2022-12-19T04:12:37;11.00;44.00
11239;DHT22;5677;48.488;13.436;2022-12-19T04:15:05;11.10;44.20
11239;DHT22;5677;48.488;13.436;2022-12-19T04:17:39;11.00;44.10
11239;DHT22;5677;48.488;13.436;2022-12-19T04:20:09;11.00;44.00
11239;DHT22;5677;48.488;13.436;2022-12-19T04:22:40;11.10;44.20
11239;DHT22;5677;48.488;13.436;2022-12-19T04:25:11;11.10;44.10
11239;DHT22;5677;48.488;13.436;2022-12-19T04:27:41;11.00;44.00
11239;DHT22;5677;48.488;13.436;2022-12-19T04:30:12;11.00;44.00
11239;DHT22;5677;48.488;13.436;2022-12-19T04:32:41;11.10;44.10
11239;DHT22;5677;48.488;13.436;2022-12-19T04:35:08;11.00;44.00
11239;DHT22;5677;48.488;13.436;2022-12-19T04:37:35;11.00;44.00
11239;DHT22;5677;48.488;13.436;2022-12-19T04:40:02;11.00;44.10
11239;DHT22;5677;48.488;13.436;2022-12-19T04:42:29;11.10;44.10
11239;DHT22;5677;48.488;13.436;2022-12-19T04:44:56;11.00;44.00
11239;DHT22;5677;48.488;13.436;2022-12-19T04:47:23;11.00;44.10
11239;DHT22;5677;48.488;13.436;2022-12-19T04:49:51;11.00;44.10
11239;DHT22;5677;48.488;13.436;2022-12-19T04:52:18;11.00;44.10
11239;DHT22;5677;48.488;13.436;2022-12-19T04:54:44;11.00;44.20
11239;DHT22;5677;48.488;13.436;2022-12-19T04:57:11;11.10;44.20
11239;DHT22;5677;48.488;13.436;2022-12-19T04:59:38;11.00;44.10
11239;DHT22;5677;48.488;13.436;2022-12-19T05:02:05;11.00;44.10
11239;DHT22;5677;48.488;13.436;2022-12-19T05:04:32;11.10;44.20
11239;DHT22;5677;48.488;13.436;2022-12-19T05:07:00;11.00;44.10
11239;DHT22;5677;48.488;13.436;2022-12-19T05:09:27;11.10;44.20
11239;DHT22;5677;48.488;13.436;2022-12-19T05:11:54;11.00;44.10
11239;DHT22;5677;48.488;13.436;2022-12-19T05:14:20;11.00;44.10
11239;DHT22;5677;48.488;13.436;2022-12-19T05:16:47;11.10;44.20
11239;DHT22;5677;48.488;13.436;2022-12-19T05:19:16;11.00;44.10
11239;DHT22;5677;48.488;13.436;2022-12-19T05:21:42;11.00;44.10
11239;DHT22;5677;48.488;13.436;2022-12-19T05:24:11;11.00;44.10
11239;DHT22;5677;48.488;13.436;2022-12-19T05:26:38;11.00;44.10
11239;DHT22;5677;48.488;13.436;2022-12-19T05:29:04;11.00;44.10
11239;DHT22;5677;48.488;13.436;2022-12-19T05:31:31;11.00;44.10
11239;DHT22;5677;48.488;13.436;2022-12-19T05:33:58;11.00;44.10
11239;DHT22;5677;48.488;13.436;2022-12-19T05:36:25;11.00;44.10
11239;DHT22;5677;48.488;13.436;2022-12-19T05:38:52;11.00;44.00
11239;DHT22;5677;48.488;13.436;2022-12-19T05:41:20;11.00;44.10
11239;DHT22;5677;48.488;13.436;2022-12-19T05:43:49;11.00;44.10
11239;DHT22;5677;48.488;13.436;2022-12-19T05:46:17;11.00;44.10
11239;DHT22;5677;48.488;13.436;2022-12-19T05:48:43;11.10;44.20
11239;DHT22;5677;48.488;13.436;2022-12-19T05:51:10;11.00;44.10
11239;DHT22;5677;48.488;13.436;2022-12-19T05:53:38;11.00;44.10
11239;DHT22;5677;48.488;13.436;2022-12-19T05:56:06;11.00;44.10
11239;DHT22;5677;48.488;13.436;2022-12-19T05:58:35;11.00;44.10
11239;DHT22;5677;48.488;13.436;2022-12-19T06:01:03;11.00;44.10
11239;DHT22;5677;48.488;13.436;2022-12-19T06:03:30;11.00;44.10
11239;DHT22;5677;48.488;13.436;2022-12-19T06:05:57;11.00;44.10
11239;DHT22;5677;48.488;13.436;2022-12-19T06:08:23;11.00;44.10
11239;DHT22;5677;48.488;13.436;2022-12-19T06:10:50;11.00;44.10
11239;DHT22;5677;48.488;13.436;2022-12-19T06:13:17;11.00;44.00
11239;DHT22;5677;48.488;13.436;2022-12-19T06:15:45;11.10;44.20
11239;DHT22;5677;48.488;13.436;2022-12-19T06:18:12;11.10;44.20
11239;DHT22;5677;48.488;13.436;2022-12-19T06:20:38;11.10;44.20
11239;DHT22;5677;48.488;13.436;2022-12-19T06:23:05;11.00;44.10
11239;DHT22;5677;48.488;13.436;2022-12-19T06:25:33;11.00;44.10
11239;DHT22;5677;48.488;13.436;2022-12-19T06:27:59;11.00;44.10
11239;DHT22;5677;48.488;13.436;2022-12-19T06:30:27;11.00;44.20
11239;DHT22;5677;48.488;13.436;2022-12-19T06:32:55;11.00;44.10
11239;DHT22;5677;48.488;13.436;2022-12-19T06:35:22;11.00;44.10
11239;DHT22;5677;48.488;13.436;2022-12-19T06:37:49;11.10;44.20
11239;DHT22;5677;48.488;13.436;2022-12-19T06:40:16;11.00;44.10
11239;DHT22;5677;48.488;13.436;2022-12-19T06:43:02;11.00;44.10
11239;DHT22;5677;48.488;13.436;2022-12-19T06:45:29;11.00;44.10
11239;DHT22;5677;48.488;13.436;2022-12-19T06:47:59;11.00;44.10
11239;DHT22;5677;48.488;13.436;2022-12-19T06:50:26;11.00;40.70
11239;DHT22;5677;48.488;13.436;2022-12-19T06:52:52;11.00;45.80
11239;DHT22;5677;48.488;13.436;2022-12-19T06:55:19;11.00;46.50
11239;DHT22;5677;48.488;13.436;2022-12-19T06:57:46;11.00;45.90
11239;DHT22;5677;48.488;13.436;2022-12-19T07:00:14;11.00;39.90
11239;DHT22;5677;48.488;13.436;2022-12-19T07:02:44;10.90;44.30
11239;DHT22;5677;48.488;13.436;2022-12-19T07:05:13;10.90;45.10
11239;DHT22;5677;48.488;13.436;2022-12-19T07:07:40;10.90;43.10
11239;DHT22;5677;48.488;13.436;2022-12-19T07:10:08;10.80;39.10
11239;DHT22;5677;48.488;13.436;2022-12-19T07:12:35;10.70;42.20
11239;DHT22;5677;48.488;13.436;2022-12-19T07:15:02;10.50;33.60
11239;DHT22;5677;48.488;13.436;2022-12-19T07:17:29;10.20;33.70
11239;DHT22;5677;48.488;13.436;2022-12-19T07:19:57;10.20;39.50
11239;DHT22;5677;48.488;13.436;2022-12-19T07:22:28;10.10;37.00
11239;DHT22;5677;48.488;13.436;2022-12-19T07:24:57;9.90;35.00
11239;DHT22;5677;48.488;13.436;2022-12-19T07:27:24;9.40;34.30
11239;DHT22;5677;48.488;13.436;2022-12-19T07:29:52;9.40;37.30
11239;DHT22;5677;48.488;13.436;2022-12-19T07:32:19;9.50;39.20
11239;DHT22;5677;48.488;13.436;2022-12-19T07:34:47;9.50;40.10
11239;DHT22;5677;48.488;13.436;2022-12-19T07:37:13;9.60;41.10
11239;DHT22;5677;48.488;13.436;2022-12-19T07:39:41;9.80;43.60
11239;DHT22;5677;48.488;13.436;2022-12-19T07:42:08;9.90;39.50
11239;DHT22;5677;48.488;13.436;2022-12-19T07:44:35;9.90;38.10
11239;DHT22;5677;48.488;13.436;2022-12-19T07:47:02;9.90;42.40
11239;DHT22;5677;48.488;13.436;2022-12-19T07:49:28;10.00;46.40
11239;DHT22;5677;48.488;13.436;2022-12-19T07:51:55;10.10;46.90
11239;DHT22;5677;48.488;13.436;2022-12-19T07:54:22;10.20;46.50
11239;DHT22;5677;48.488;13.436;2022-12-19T07:56:51;10.30;46.40
11239;DHT22;5677;48.488;13.436;2022-12-19T07:59:18;10.40;46.40
11239;DHT22;5677;48.488;13.436;2022-12-19T08:01:47;10.50;46.40
11239;DHT22;5677;48.488;13.436;2022-12-19T08:04:14;10.50;46.30
11239;DHT22;5677;48.488;13.436;2022-12-19T08:06:40;10.60;46.20
11239;DHT22;5677;48.488;13.436;2022-12-19T08:09:07;10.60;46.00
11239;DHT22;5677;48.488;13.436;2022-12-19T08:11:34;10.70;46.10
11239;DHT22;5677;48.488;13.436;2022-12-19T08:14:02;10.70;46.00
11239;DHT22;5677;48.488;13.436;2022-12-19T08:16:29;10.80;45.80
11239;DHT22;5677;48.488;13.436;2022-12-19T08:18:56;10.70;42.80
11239;DHT22;5677;48.488;13.436;2022-12-19T08:21:23;10.80;44.30
11239;DHT22;5677;48.488;13.436;2022-12-19T08:23:50;10.70;44.10
11239;DHT22;5677;48.488;13.436;2022-12-19T08:26:18;10.80;44.00
11239;DHT22;5677;48.488;13.436;2022-12-19T08:28:49;10.80;43.90
11239;DHT22;5677;48.488;13.436;2022-12-19T08:31:21;10.80;44.00
11239;DHT22;5677;48.488;13.436;2022-12-19T08:33:49;10.90;44.10
11239;DHT22;5677;48.488;13.436;2022-12-19T08:36:17;10.90;44.20
11239;DHT22;5677;48.488;13.436;2022-12-19T08:38:44;10.90;42.70
11239;DHT22;5677;48.488;13.436;2022-12-19T08:41:11;10.90;43.80
11239;DHT22;5677;48.488;13.436;2022-12-19T08:43:38;10.90;43.90
11239;DHT22;5677;48.488;13.436;2022-12-19T08:46:05;10.90;43.60
11239;DHT22;5677;48.488;13.436;2022-12-19T08:48:35;10.90;43.90
11239;DHT22;5677;48.488;13.436;2022-12-19T08:51:04;10.90;43.20
11239;DHT22;5677;48.488;13.436;2022-12-19T08:53:33;10.90;43.40
11239;DHT22;5677;48.488;13.436;2022-12-19T08:56:03;10.90;43.20
11239;DHT22;5677;48.488;13.436;2022-12-19T08:58:31;10.90;43.10
11239;DHT22;5677;48.488;13.436;2022-12-19T09:00:58;10.90;43.00
11239;DHT22;5677;48.488;13.436;2022-12-19T09:03:25;10.90;43.00
11239;DHT22;5677;48.488;13.436;2022-12-19T09:05:57;10.80;43.00
11239;DHT22;5677;48.488;13.436;2022-12-19T09:08:24;10.90;43.10
11239;DHT22;5677;48.488;13.436;2022-12-19T09:10:56;10.90;43.10
11239;DHT22;5677;48.488;13.436;2022-12-19T09:13:25;10.90;43.80
11239;DHT22;5677;48.488;13.436;2022-12-19T09:15:59;10.90;44.30
11239;DHT22;5677;48.488;13.436;2022-12-19T09:18:26;10.90;44.50
11239;DHT22;5677;48.488;13.436;2022-12-19T09:20:58;10.90;44.60
11239;DHT22;5677;48.488;13.436;2022-12-19T09:23:26;10.90;44.90
11239;DHT22;5677;48.488;13.436;2022-12-19T09:25:53;10.90;45.00
11239;DHT22;5677;48.488;13.436;2022-12-19T09:28:20;10.90;45.90
11239;DHT22;5677;48.488;13.436;2022-12-19T09:30:54;10.90;45.80
11239;DHT22;5677;48.488;13.436;2022-12-19T09:33:21;10.90;45.50
11239;DHT22;5677;48.488;13.436;2022-12-19T09:35:49;11.00;46.20
11239;DHT22;5677;48.488;13.436;2022-12-19T09:38:18;11.00;48.10
11239;DHT22;5677;48.488;13.436;2022-12-19T09:40:53;11.00;46.90
11239;DHT22;5677;48.488;13.436;2022-12-19T09:43:32;11.00;46.80
11239;DHT22;5677;48.488;13.436;2022-12-19T09:46:07;11.00;46.60
11239;DHT22;5677;48.488;13.436;2022-12-19T09:48:37;11.00;46.30
11239;DHT22;5677;48.488;13.436;2022-12-19T09:51:08;11.00;46.10
11239;DHT22;5677;48.488;13.436;2022-12-19T09:53:51;11.10;47.70
11239;DHT22;5677;48.488;13.436;2022-12-19T09:56:21;11.10;48.50
11239;DHT22;5677;48.488;13.436;2022-12-19T09:58:52;11.10;47.70
11239;DHT22;5677;48.488;13.436;2022-12-19T10:01:25;11.10;46.90
11239;DHT22;5677;48.488;13.436;2022-12-19T10:03:58;11.10;46.50
11239;DHT22;5677;48.488;13.436;2022-12-19T10:06:28;11.10;46.30
11239;DHT22;5677;48.488;13.436;2022-12-19T10:08:58;11.10;46.20
11239;DHT22;5677;48.488;13.436;2022-12-19T10:11:45;11.10;46.10
11239;DHT22;5677;48.488;13.436;2022-12-19T10:14:25;11.10;46.10
11239;DHT22;5677;48.488;13.436;2022-12-19T10:17:04;11.10;45.90
11239;DHT22;5677;48.488;13.436;2022-12-19T10:19:40;11.10;46.10
11239;DHT22;5677;48.488;13.436;2022-12-19T10:22:17;11.10;46.30
11239;DHT22;5677;48.488;13.436;2022-12-19T10:25:15;11.10;46.10
11239;DHT22;5677;48.488;13.436;2022-12-19T10:27:50;11.10;46.40
11239;DHT22;5677;48.488;13.436;2022-12-19T10:30:20;11.10;46.10
11239;DHT22;5677;48.488;13.436;2022-12-19T10:32:56;11.10;46.30
11239;DHT22;5677;48.488;13.436;2022-12-19T10:35:29;11.10;46.30
11239;DHT22;5677;48.488;13.436;2022-12-19T10:38:07;11.10;46.40
11239;DHT22;5677;48.488;13.436;2022-12-19T10:40:46;11.10;46.50
11239;DHT22;5677;48.488;13.436;2022-12-19T10:43:20;11.20;51.10
11239;DHT22;5677;48.488;13.436;2022-12-19T10:45:50;11.30;51.10
11239;DHT22;5677;48.488;13.436;2022-12-19T10:48:20;11.30;51.30
11239;DHT22;5677;48.488;13.436;2022-12-19T10:50:48;11.40;51.40
11239;DHT22;5677;48.488;13.436;2022-12-19T10:53:15;11.40;51.40
11239;DHT22;5677;48.488;13.436;2022-12-19T10:55:45;11.40;51.60
11239;DHT22;5677;48.488;13.436;2022-12-19T10:58:19;11.40;51.50
11239;DHT22;5677;48.488;13.436;2022-12-19T11:01:03;11.50;51.20
11239;DHT22;5677;48.488;13.436;2022-12-19T11:03:31;11.50;50.90
11239;DHT22;5677;48.488;13.436;2022-12-19T11:05:59;11.50;50.80
11239;DHT22;5677;48.488;13.436;2022-12-19T11:08:30;11.50;50.70
11239;DHT22;5677;48.488;13.436;2022-12-19T11:11:12;11.50;50.60
11239;DHT22;5677;48.488;13.436;2022-12-19T11:13:42;11.60;50.50
11239;DHT22;5677;48.488;13.436;2022-12-19T11:16:10;11.50;50.40
11239;DHT22;5677;48.488;13.436;2022-12-19T11:18:38;11.60;50.20
11239;DHT22;5677;48.488;13.436;2022-12-19T11:21:12;11.60;50.30
11239;DHT22;5677;48.488;13.436;2022-12-19T11:23:46;11.60;50.10
11239;DHT22;5677;48.488;13.436;2022-12-19T11:26:30;11.60;50.00
11239;DHT22;5677;48.488;13.436;2022-12-19T11:29:02;11.60;50.00
11239;DHT22;5677;48.488;13.436;2022-12-19T11:31:30;11.60;50.00
11239;DHT22;5677;48.488;13.436;2022-12-19T11:34:03;11.60;50.10
11239;DHT22;5677;48.488;13.436;2022-12-19T11:36:35;11.60;50.00
11239;DHT22;5677;48.488;13.436;2022-12-19T11:39:04;11.60;49.90
11239;DHT22;5677;48.488;13.436;2022-12-19T11:41:40;11.70;49.90
11239;DHT22;5677;48.488;13.436;2022-12-19T11:44:12;11.70;49.80
11239;DHT22;5677;48.488;13.436;2022-12-19T11:46:46;11.70;49.70
11239;DHT22;5677;48.488;13.436;2022-12-19T11:49:22;11.60;49.60
11239;DHT22;5677;48.488;13.436;2022-12-19T11:51:54;11.70;49.60
11239;DHT22;5677;48.488;13.436;2022-12-19T11:54:26;11.70;49.60
11239;DHT22;5677;48.488;13.436;2022-12-19T11:56:57;11.70;49.70
11239;DHT22;5677;48.488;13.436;2022-12-19T11:59:34;11.70;49.60
11239;DHT22;5677;48.488;13.436;2022-12-19T12:02:24;11.60;49.90
11239;DHT22;5677;48.488;13.436;2022-12-19T12:05:25;11.60;49.10
11239;DHT22;5677;48.488;13.436;2022-12-19T12:08:09;11.60;49.00
11239;DHT22;5677;48.488;13.436;2022-12-19T12:10:50;11.60;49.00
11239;DHT22;5677;48.488;13.436;2022-12-19T12:13:29;11.50;48.80
11239;DHT22;5677;48.488;13.436;2022-12-19T12:16:02;11.50;48.60
11239;DHT22;5677;48.488;13.436;2022-12-19T12:18:43;11.50;48.50
11239;DHT22;5677;48.488;13.436;2022-12-19T12:21:21;11.50;48.30
11239;DHT22;5677;48.488;13.436;2022-12-19T12:24:00;11.50;48.20
11239;DHT22;5677;48.488;13.436;2022-12-19T12:26:35;11.50;48.10
11239;DHT22;5677;48.488;13.436;2022-12-19T12:29:10;11.40;47.90
11239;DHT22;5677;48.488;13.436;2022-12-19T12:34:58;11.40;47.60
11239;DHT22;5677;48.488;13.436;2022-12-19T12:37:38;11.40;47.50
11239;DHT22;5677;48.488;13.436;2022-12-19T12:40:33;11.40;47.40
11239;DHT22;5677;48.488;13.436;2022-12-19T12:43:13;11.40;47.30
11239;DHT22;5677;48.488;13.436;2022-12-19T12:45:44;11.40;47.20
11239;DHT22;5677;48.488;13.436;2022-12-19T12:48:20;11.40;47.10
11239;DHT22;5677;48.488;13.436;2022-12-19T12:50:48;11.40;47.00
11239;DHT22;5677;48.488;13.436;2022-12-19T12:53:18;11.40;47.00
11239;DHT22;5677;48.488;13.436;2022-12-19T12:55:46;11.40;46.90
11239;DHT22;5677;48.488;13.436;2022-12-19T12:58:41;11.40;46.90
11239;DHT22;5677;48.488;13.436;2022-12-19T13:01:14;11.40;46.80
11239;DHT22;5677;48.488;13.436;2022-12-19T13:03:42;11.40;46.80
11239;DHT22;5677;48.488;13.436;2022-12-19T13:06:24;11.40;46.70
11239;DHT22;5677;48.488;13.436;2022-12-19T13:08:53;11.40;46.60
11239;DHT22;5677;48.488;13.436;2022-12-19T13:11:37;11.40;46.60
11239;DHT22;5677;48.488;13.436;2022-12-19T13:14:47;11.40;46.60
11239;DHT22;5677;48.488;13.436;2022-12-19T13:17:23;11.40;46.50
11239;DHT22;5677;48.488;13.436;2022-12-19T13:19:54;11.40;46.50
11239;DHT22;5677;48.488;13.436;2022-12-19T13:22:36;11.40;46.40
11239;DHT22;5677;48.488;13.436;2022-12-19T13:28:35;11.40;46.30
11239;DHT22;5677;48.488;13.436;2022-12-19T13:31:16;11.40;46.30
11239;DHT22;5677;48.488;13.436;2022-12-19T13:36:49;11.40;46.20
11239;DHT22;5677;48.488;13.436;2022-12-19T13:39:32;11.40;46.20
11239;DHT22;5677;48.488;13.436;2022-12-19T13:42:11;11.40;46.10
11239;DHT22;5677;48.488;13.436;2022-12-19T13:44:58;11.30;40.90
11239;DHT22;5677;48.488;13.436;2022-12-19T13:47:31;11.20;39.90
11239;DHT22;5677;48.488;13.436;2022-12-19T13:50:00;11.20;42.90
11239;DHT22;5677;48.488;13.436;2022-12-19T13:52:29;11.10;44.40
11239;DHT22;5677;48.488;13.436;2022-12-19T13:54:57;11.10;44.60
11239;DHT22;5677;48.488;13.436;2022-12-19T13:57:25;11.20;45.30
11239;DHT22;5677;48.488;13.436;2022-12-19T13:59:55;11.20;47.60
11239;DHT22;5677;48.488;13.436;2022-12-19T14:02:29;11.20;47.10
11239;DHT22;5677;48.488;13.436;2022-12-19T14:04:56;11.30;46.90
11239;DHT22;5677;48.488;13.436;2022-12-19T14:07:29;11.30;46.60
11239;DHT22;5677;48.488;13.436;2022-12-19T14:09:58;11.30;46.50
11239;DHT22;5677;48.488;13.436;2022-12-19T14:12:27;11.30;46.30
11239;DHT22;5677;48.488;13.436;2022-12-19T14:15:28;11.30;46.20
11239;DHT22;5677;48.488;13.436;2022-12-19T14:17:58;11.40;46.10
11239;DHT22;5677;48.488;13.436;2022-12-19T14:20:27;11.40;46.00
11239;DHT22;5677;48.488;13.436;2022-12-19T14:22:56;11.40;46.00
11239;DHT22;5677;48.488;13.436;2022-12-19T14:25:24;11.30;45.90
11239;DHT22;5677;48.488;13.436;2022-12-19T14:27:55;11.30;45.90
11239;DHT22;5677;48.488;13.436;2022-12-19T14:30:28;11.40;45.90
11239;DHT22;5677;48.488;13.436;2022-12-19T14:33:05;11.30;45.70
11239;DHT22;5677;48.488;13.436;2022-12-19T14:35:36;11.30;45.70
11239;DHT22;5677;48.488;13.436;2022-12-19T14:38:05;11.30;45.70
11239;DHT22;5677;48.488;13.436;2022-12-19T14:40:38;11.40;45.60
11239;DHT22;5677;48.488;13.436;2022-12-19T14:43:13;11.30;45.60
11239;DHT22;5677;48.488;13.436;2022-12-19T14:46:22;11.40;45.60
11239;DHT22;5677;48.488;13.436;2022-12-19T14:48:53;11.30;45.60
11239;DHT22;5677;48.488;13.436;2022-12-19T14:51:30;11.30;45.50
11239;DHT22;5677;48.488;13.436;2022-12-19T14:54:14;11.30;45.50
11239;DHT22;5677;48.488;13.436;2022-12-19T14:56:44;11.30;45.50
11239;DHT22;5677;48.488;13.436;2022-12-19T14:59:28;11.30;45.50
11239;DHT22;5677;48.488;13.436;2022-12-19T15:01:59;11.30;45.50
11239;DHT22;5677;48.488;13.436;2022-12-19T15:04:31;11.30;45.50
11239;DHT22;5677;48.488;13.436;2022-12-19T15:07:02;11.30;45.50
11239;DHT22;5677;48.488;13.436;2022-12-19T15:09:34;11.30;45.40
11239;DHT22;5677;48.488;13.436;2022-12-19T15:12:11;11.30;45.40
11239;DHT22;5677;48.488;13.436;2022-12-19T15:15:06;11.30;45.40
11239;DHT22;5677;48.488;13.436;2022-12-19T15:17:43;11.30;45.40
11239;DHT22;5677;48.488;13.436;2022-12-19T15:20:12;11.30;45.40
11239;DHT22;5677;48.488;13.436;2022-12-19T15:22:39;11.30;45.40
11239;DHT22;5677;48.488;13.436;2022-12-19T15:25:08;11.30;45.40
11239;DHT22;5677;48.488;13.436;2022-12-19T15:27:35;11.30;45.30
11239;DHT22;5677;48.488;13.436;2022-12-19T15:30:02;11.30;45.40
11239;DHT22;5677;48.488;13.436;2022-12-19T15:32:29;11.30;45.30
11239;DHT22;5677;48.488;13.436;2022-12-19T15:34:56;11.30;45.40
11239;DHT22;5677;48.488;13.436;2022-12-19T15:37:24;11.30;45.30
11239;DHT22;5677;48.488;13.436;2022-12-19T15:39:50;11.30;45.30
11239;DHT22;5677;48.488;13.436;2022-12-19T15:42:19;11.30;45.70
11239;DHT22;5677;48.488;13.436;2022-12-19T15:44:47;11.30;46.10
11239;DHT22;5677;48.488;13.436;2022-12-19T15:47:17;11.30;45.40
11239;DHT22;5677;48.488;13.436;2022-12-19T15:49:45;11.30;45.90
11239;DHT22;5677;48.488;13.436;2022-12-19T15:52:15;11.30;45.80
11239;DHT22;5677;48.488;13.436;2022-12-19T15:54:44;11.30;45.40
11239;DHT22;5677;48.488;13.436;2022-12-19T15:57:19;11.30;44.90
11239;DHT22;5677;48.488;13.436;2022-12-19T15:59:49;11.30;45.50
11239;DHT22;5677;48.488;13.436;2022-12-19T16:02:19;11.30;45.60
11239;DHT22;5677;48.488;13.436;2022-12-19T16:04:49;11.30;45.30
11239;DHT22;5677;48.488;13.436;2022-12-19T16:07:17;11.30;45.20
11239;DHT22;5677;48.488;13.436;2022-12-19T16:09:46;11.30;44.60